sensor_id;sensor_type;location;lat;lon;timestamp;P1;durP1;ratioP1;P2;durP2;ratioP2
71236;SDS011;58984;51.960;5.582;2023-08-31T00:02:13;8.80;;;2.53;;
71236;SDS011;58984;51.960;5.582;2023-08-31T00:04:39;6.25;;;2.60;;
71236;SDS011;58984;51.960;5.582;2023-08-31T00:07:05;6.03;;;2.53;;
71236;SDS011;58984;51.960;5.582;2023-08-31T00:09:31;2.45;;;1.95;;
71236;SDS011;58984;51.960;5.582;2023-08-31T00:11:57;2.65;;;2.00;;
71236;SDS011;58984;51.960;5.582;2023-08-31T00:14:26;4.93;;;2.58;;
71236;SDS011;58984;51.960;5.582;2023-08-31T00:16:52;6.05;;;2.55;;
71236;SDS011;58984;51.960;5.582;2023-08-31T00:19:18;3.80;;;2.20;;
71236;SDS011;58984;51.960;5.582;2023-08-31T00:21:44;4.25;;;1.90;;
71236;SDS011;58984;51.960;5.582;2023-08-31T00:24:10;2.60;;;2.20;;
71236;SDS011;58984;51.960;5.582;2023-08-31T00:26:36;7.18;;;2.65;;
71236;SDS011;58984;51.960;5.582;2023-08-31T00:29:05;3.03;;;1.70;;
71236;SDS011;58984;51.960;5.582;2023-08-31T00:31:32;3.33;;;2.22;;
71236;SDS011;58984;51.960;5.582;2023-08-31T00:33:58;3.40;;;2.00;;
71236;SDS011;58984;51.960;5.582;2023-08-31T00:36:28;3.55;;;2.35;;
71236;SDS011;58984;51.960;5.582;2023-08-31T00:38:57;5.50;;;2.50;;
71236;SDS011;58984;51.960;5.582;2023-08-31T00:41:22;3.28;;;2.30;;
71236;SDS011;58984;51.960;5.582;2023-08-31T00:43:48;3.83;;;2.15;;
71236;SDS011;58984;51.960;5.582;2023-08-31T00:46:14;4.40;;;2.20;;
71236;SDS011;58984;51.960;5.582;2023-08-31T00:48:40;3.92;;;2.10;;
71236;SDS011;58984;51.960;5.582;2023-08-31T00:51:07;3.00;;;2.15;;
71236;SDS011;58984;51.960;5.582;2023-08-31T00:53:33;5.88;;;2.83;;
71236;SDS011;58984;51.960;5.582;2023-08-31T00:56:00;3.65;;;2.40;;
71236;SDS011;58984;51.960;5.582;2023-08-31T00:58:27;4.10;;;2.92;;
71236;SDS011;58984;51.960;5.582;2023-08-31T01:07:00;6.68;;;3.30;;
71236;SDS011;58984;51.960;5.582;2023-08-31T01:12:15;6.88;;;3.50;;
71236;SDS011;58984;51.960;5.582;2023-08-31T01:14:59;4.65;;;2.92;;
71236;SDS011;58984;51.960;5.582;2023-08-31T01:17:37;7.10;;;3.58;;
71236;SDS011;58984;51.960;5.582;2023-08-31T01:20:16;7.35;;;3.47;;
71236;SDS011;58984;51.960;5.582;2023-08-31T01:23:00;7.00;;;3.53;;
71236;SDS011;58984;51.960;5.582;2023-08-31T01:25:29;5.78;;;3.42;;
71236;SDS011;58984;51.960;5.582;2023-08-31T01:27:56;5.47;;;3.50;;
71236;SDS011;58984;51.960;5.582;2023-08-31T01:30:22;7.15;;;3.60;;
71236;SDS011;58984;51.960;5.582;2023-08-31T01:32:47;4.78;;;3.47;;
71236;SDS011;58984;51.960;5.582;2023-08-31T01:35:14;5.40;;;3.58;;
71236;SDS011;58984;51.960;5.582;2023-08-31T01:42:50;4.50;;;3.10;;
71236;SDS011;58984;51.960;5.582;2023-08-31T01:45:18;6.03;;;3.90;;
71236;SDS011;58984;51.960;5.582;2023-08-31T01:47:45;6.95;;;3.50;;
71236;SDS011;58984;51.960;5.582;2023-08-31T01:50:12;5.95;;;3.60;;
71236;SDS011;58984;51.960;5.582;2023-08-31T01:52:38;7.70;;;4.28;;
71236;SDS011;58984;51.960;5.582;2023-08-31T01:55:04;5.90;;;3.83;;
71236;SDS011;58984;51.960;5.582;2023-08-31T01:57:30;6.25;;;3.60;;
71236;SDS011;58984;51.960;5.582;2023-08-31T01:59:57;6.43;;;3.42;;
71236;SDS011;58984;51.960;5.582;2023-08-31T02:02:23;5.47;;;3.45;;
71236;SDS011;58984;51.960;5.582;2023-08-31T02:04:49;5.05;;;3.92;;
71236;SDS011;58984;51.960;5.582;2023-08-31T02:07:17;5.50;;;3.75;;
71236;SDS011;58984;51.960;5.582;2023-08-31T02:09:44;6.85;;;3.53;;
71236;SDS011;58984;51.960;5.582;2023-08-31T02:12:09;6.97;;;3.92;;
71236;SDS011;58984;51.960;5.582;2023-08-31T02:14:35;7.30;;;4.40;;
71236;SDS011;58984;51.960;5.582;2023-08-31T02:17:01;6.72;;;3.88;;
71236;SDS011;58984;51.960;5.582;2023-08-31T02:19:27;14.18;;;4.75;;
71236;SDS011;58984;51.960;5.582;2023-08-31T02:21:52;8.70;;;4.50;;
71236;SDS011;58984;51.960;5.582;2023-08-31T02:24:18;8.10;;;4.15;;
71236;SDS011;58984;51.960;5.582;2023-08-31T02:26:44;7.40;;;3.92;;
71236;SDS011;58984;51.960;5.582;2023-08-31T02:29:10;6.35;;;4.15;;
71236;SDS011;58984;51.960;5.582;2023-08-31T02:31:35;5.05;;;3.53;;
71236;SDS011;58984;51.960;5.582;2023-08-31T02:34:02;6.15;;;3.80;;
71236;SDS011;58984;51.960;5.582;2023-08-31T02:36:28;6.43;;;4.20;;
71236;SDS011;58984;51.960;5.582;2023-08-31T02:38:54;8.07;;;3.80;;
71236;SDS011;58984;51.960;5.582;2023-08-31T02:41:21;5.32;;;3.75;;
71236;SDS011;58984;51.960;5.582;2023-08-31T02:43:49;6.60;;;4.03;;
71236;SDS011;58984;51.960;5.582;2023-08-31T02:46:15;5.68;;;3.85;;
71236;SDS011;58984;51.960;5.582;2023-08-31T02:48:41;5.80;;;4.07;;
71236;SDS011;58984;51.960;5.582;2023-08-31T02:51:07;7.30;;;3.92;;
71236;SDS011;58984;51.960;5.582;2023-08-31T02:53:35;4.93;;;3.67;;
71236;SDS011;58984;51.960;5.582;2023-08-31T02:56:03;7.88;;;4.20;;
71236;SDS011;58984;51.960;5.582;2023-08-31T02:58:29;6.28;;;3.80;;
71236;SDS011;58984;51.960;5.582;2023-08-31T03:00:55;6.85;;;4.00;;
71236;SDS011;58984;51.960;5.582;2023-08-31T03:03:30;4.40;;;2.90;;
71236;SDS011;58984;51.960;5.582;2023-08-31T03:05:56;4.72;;;3.08;;
71236;SDS011;58984;51.960;5.582;2023-08-31T03:08:24;6.85;;;3.45;;
71236;SDS011;58984;51.960;5.582;2023-08-31T03:10:50;4.50;;;3.00;;
71236;SDS011;58984;51.960;5.582;2023-08-31T03:13:19;4.90;;;3.30;;
71236;SDS011;58984;51.960;5.582;2023-08-31T03:15:45;6.45;;;3.42;;
71236;SDS011;58984;51.960;5.582;2023-08-31T03:18:10;5.57;;;3.03;;
71236;SDS011;58984;51.960;5.582;2023-08-31T03:20:36;5.57;;;3.45;;
71236;SDS011;58984;51.960;5.582;2023-08-31T03:23:01;4.53;;;3.15;;
71236;SDS011;58984;51.960;5.582;2023-08-31T03:25:27;6.72;;;2.75;;
71236;SDS011;58984;51.960;5.582;2023-08-31T03:27:53;4.13;;;3.00;;
71236;SDS011;58984;51.960;5.582;2023-08-31T03:30:19;5.43;;;2.90;;
71236;SDS011;58984;51.960;5.582;2023-08-31T03:32:45;4.50;;;3.17;;
71236;SDS011;58984;51.960;5.582;2023-08-31T03:35:10;4.95;;;3.25;;
71236;SDS011;58984;51.960;5.582;2023-08-31T03:37:38;6.65;;;3.28;;
71236;SDS011;58984;51.960;5.582;2023-08-31T03:40:04;5.10;;;3.00;;
71236;SDS011;58984;51.960;5.582;2023-08-31T03:42:31;3.83;;;2.90;;
71236;SDS011;58984;51.960;5.582;2023-08-31T03:44:58;5.75;;;3.65;;
71236;SDS011;58984;51.960;5.582;2023-08-31T03:47:24;5.63;;;3.40;;
71236;SDS011;58984;51.960;5.582;2023-08-31T03:49:50;4.50;;;3.25;;
71236;SDS011;58984;51.960;5.582;2023-08-31T03:52:15;8.32;;;3.45;;
71236;SDS011;58984;51.960;5.582;2023-08-31T03:54:41;7.47;;;3.85;;
71236;SDS011;58984;51.960;5.582;2023-08-31T03:57:07;6.80;;;3.60;;
71236;SDS011;58984;51.960;5.582;2023-08-31T03:59:34;4.90;;;3.50;;
71236;SDS011;58984;51.960;5.582;2023-08-31T04:02:00;4.20;;;3.20;;
71236;SDS011;58984;51.960;5.582;2023-08-31T04:04:25;6.55;;;3.63;;
71236;SDS011;58984;51.960;5.582;2023-08-31T04:06:51;3.33;;;2.85;;
71236;SDS011;58984;51.960;5.582;2023-08-31T04:09:17;5.97;;;3.35;;
71236;SDS011;58984;51.960;5.582;2023-08-31T04:11:44;5.63;;;3.33;;
71236;SDS011;58984;51.960;5.582;2023-08-31T04:14:09;5.75;;;3.30;;
71236;SDS011;58984;51.960;5.582;2023-08-31T04:16:38;7.53;;;4.22;;
71236;SDS011;58984;51.960;5.582;2023-08-31T04:19:04;5.78;;;3.45;;
71236;SDS011;58984;51.960;5.582;2023-08-31T04:21:29;7.13;;;4.10;;
71236;SDS011;58984;51.960;5.582;2023-08-31T04:24:01;8.63;;;3.97;;
71236;SDS011;58984;51.960;5.582;2023-08-31T04:26:27;6.85;;;4.28;;
71236;SDS011;58984;51.960;5.582;2023-08-31T04:28:53;6.85;;;4.40;;
71236;SDS011;58984;51.960;5.582;2023-08-31T04:31:18;6.45;;;3.95;;
71236;SDS011;58984;51.960;5.582;2023-08-31T04:33:47;7.03;;;4.55;;
71236;SDS011;58984;51.960;5.582;2023-08-31T04:36:19;8.02;;;4.93;;
71236;SDS011;58984;51.960;5.582;2023-08-31T04:38:45;5.15;;;3.92;;
71236;SDS011;58984;51.960;5.582;2023-08-31T04:41:11;7.50;;;4.70;;
71236;SDS011;58984;51.960;5.582;2023-08-31T04:43:37;7.10;;;4.82;;
71236;SDS011;58984;51.960;5.582;2023-08-31T04:46:02;7.05;;;4.90;;
71236;SDS011;58984;51.960;5.582;2023-08-31T04:48:29;6.15;;;4.70;;
71236;SDS011;58984;51.960;5.582;2023-08-31T04:50:58;6.70;;;4.55;;
71236;SDS011;58984;51.960;5.582;2023-08-31T04:53:24;8.10;;;5.15;;
71236;SDS011;58984;51.960;5.582;2023-08-31T04:55:50;9.73;;;5.18;;
71236;SDS011;58984;51.960;5.582;2023-08-31T04:58:16;6.35;;;5.10;;
71236;SDS011;58984;51.960;5.582;2023-08-31T05:00:42;9.52;;;6.00;;
71236;SDS011;58984;51.960;5.582;2023-08-31T05:03:09;7.63;;;4.57;;
71236;SDS011;58984;51.960;5.582;2023-08-31T05:05:35;8.52;;;5.30;;
71236;SDS011;58984;51.960;5.582;2023-08-31T05:08:01;9.75;;;5.40;;
71236;SDS011;58984;51.960;5.582;2023-08-31T05:10:28;6.15;;;4.78;;
71236;SDS011;58984;51.960;5.582;2023-08-31T05:12:54;10.75;;;5.40;;
71236;SDS011;58984;51.960;5.582;2023-08-31T05:15:19;7.03;;;5.30;;
71236;SDS011;58984;51.960;5.582;2023-08-31T05:17:45;9.55;;;5.00;;
71236;SDS011;58984;51.960;5.582;2023-08-31T05:20:16;8.50;;;5.30;;
71236;SDS011;58984;51.960;5.582;2023-08-31T05:22:41;9.63;;;5.70;;
71236;SDS011;58984;51.960;5.582;2023-08-31T05:25:09;8.10;;;4.97;;
71236;SDS011;58984;51.960;5.582;2023-08-31T05:27:35;8.13;;;5.40;;
71236;SDS011;58984;51.960;5.582;2023-08-31T05:30:00;10.35;;;5.47;;
71236;SDS011;58984;51.960;5.582;2023-08-31T05:32:30;9.27;;;6.43;;
71236;SDS011;58984;51.960;5.582;2023-08-31T05:34:55;8.88;;;5.28;;
71236;SDS011;58984;51.960;5.582;2023-08-31T05:37:21;10.20;;;5.47;;
71236;SDS011;58984;51.960;5.582;2023-08-31T05:39:50;10.10;;;6.38;;
71236;SDS011;58984;51.960;5.582;2023-08-31T05:42:16;8.25;;;5.70;;
71236;SDS011;58984;51.960;5.582;2023-08-31T05:44:41;10.25;;;5.97;;
71236;SDS011;58984;51.960;5.582;2023-08-31T05:47:07;10.02;;;5.88;;
71236;SDS011;58984;51.960;5.582;2023-08-31T05:49:33;7.88;;;5.28;;
71236;SDS011;58984;51.960;5.582;2023-08-31T05:51:58;8.85;;;5.95;;
71236;SDS011;58984;51.960;5.582;2023-08-31T05:54:24;10.05;;;6.07;;
71236;SDS011;58984;51.960;5.582;2023-08-31T05:56:50;8.60;;;6.22;;
71236;SDS011;58984;51.960;5.582;2023-08-31T05:59:15;9.10;;;6.07;;
71236;SDS011;58984;51.960;5.582;2023-08-31T06:01:41;7.65;;;6.20;;
71236;SDS011;58984;51.960;5.582;2023-08-31T06:04:11;7.53;;;5.55;;
71236;SDS011;58984;51.960;5.582;2023-08-31T06:06:36;8.60;;;5.65;;
71236;SDS011;58984;51.960;5.582;2023-08-31T06:09:02;9.00;;;6.15;;
71236;SDS011;58984;51.960;5.582;2023-08-31T06:11:29;8.95;;;5.18;;
71236;SDS011;58984;51.960;5.582;2023-08-31T06:13:55;8.00;;;5.47;;
71236;SDS011;58984;51.960;5.582;2023-08-31T06:16:20;8.10;;;5.47;;
71236;SDS011;58984;51.960;5.582;2023-08-31T06:18:46;8.02;;;5.15;;
71236;SDS011;58984;51.960;5.582;2023-08-31T06:21:11;8.35;;;4.85;;
71236;SDS011;58984;51.960;5.582;2023-08-31T06:23:37;13.13;;;5.68;;
71236;SDS011;58984;51.960;5.582;2023-08-31T06:26:03;7.65;;;5.30;;
71236;SDS011;58984;51.960;5.582;2023-08-31T06:28:28;7.07;;;5.43;;
71236;SDS011;58984;51.960;5.582;2023-08-31T06:30:54;9.15;;;5.40;;
71236;SDS011;58984;51.960;5.582;2023-08-31T06:33:19;9.95;;;5.68;;
71236;SDS011;58984;51.960;5.582;2023-08-31T06:35:46;10.38;;;5.50;;
71236;SDS011;58984;51.960;5.582;2023-08-31T06:38:13;9.65;;;6.18;;
71236;SDS011;58984;51.960;5.582;2023-08-31T06:40:41;8.13;;;5.13;;
71236;SDS011;58984;51.960;5.582;2023-08-31T06:43:08;12.25;;;5.80;;
71236;SDS011;58984;51.960;5.582;2023-08-31T06:45:34;10.52;;;5.68;;
71236;SDS011;58984;51.960;5.582;2023-08-31T06:47:59;9.25;;;5.25;;
71236;SDS011;58984;51.960;5.582;2023-08-31T06:50:25;9.50;;;5.60;;
71236;SDS011;58984;51.960;5.582;2023-08-31T06:52:51;7.82;;;5.03;;
71236;SDS011;58984;51.960;5.582;2023-08-31T06:55:16;6.20;;;4.60;;
71236;SDS011;58984;51.960;5.582;2023-08-31T06:57:42;10.25;;;4.75;;
71236;SDS011;58984;51.960;5.582;2023-08-31T07:00:10;8.00;;;5.40;;
71236;SDS011;58984;51.960;5.582;2023-08-31T07:02:39;5.82;;;4.78;;
71236;SDS011;58984;51.960;5.582;2023-08-31T07:05:06;7.88;;;4.65;;
71236;SDS011;58984;51.960;5.582;2023-08-31T07:07:32;6.43;;;4.70;;
71236;SDS011;58984;51.960;5.582;2023-08-31T07:09:57;7.88;;;4.32;;
71236;SDS011;58984;51.960;5.582;2023-08-31T07:12:23;5.30;;;3.92;;
71236;SDS011;58984;51.960;5.582;2023-08-31T07:14:51;9.52;;;4.30;;
71236;SDS011;58984;51.960;5.582;2023-08-31T07:17:19;8.55;;;4.57;;
71236;SDS011;58984;51.960;5.582;2023-08-31T07:19:45;6.15;;;4.30;;
71236;SDS011;58984;51.960;5.582;2023-08-31T07:22:11;6.57;;;4.45;;
71236;SDS011;58984;51.960;5.582;2023-08-31T07:24:37;6.10;;;4.07;;
71236;SDS011;58984;51.960;5.582;2023-08-31T07:27:03;7.57;;;4.38;;
71236;SDS011;58984;51.960;5.582;2023-08-31T07:29:29;6.10;;;3.95;;
71236;SDS011;58984;51.960;5.582;2023-08-31T07:31:55;6.25;;;3.83;;
71236;SDS011;58984;51.960;5.582;2023-08-31T07:34:21;5.60;;;4.20;;
71236;SDS011;58984;51.960;5.582;2023-08-31T07:36:46;5.97;;;3.92;;
71236;SDS011;58984;51.960;5.582;2023-08-31T07:39:12;9.52;;;4.10;;
71236;SDS011;58984;51.960;5.582;2023-08-31T07:41:38;6.03;;;3.88;;
71236;SDS011;58984;51.960;5.582;2023-08-31T07:44:04;6.95;;;4.50;;
71236;SDS011;58984;51.960;5.582;2023-08-31T07:46:31;6.13;;;3.80;;
71236;SDS011;58984;51.960;5.582;2023-08-31T07:48:56;5.60;;;3.60;;
71236;SDS011;58984;51.960;5.582;2023-08-31T07:51:22;6.78;;;3.90;;
71236;SDS011;58984;51.960;5.582;2023-08-31T07:53:49;6.20;;;4.07;;
71236;SDS011;58984;51.960;5.582;2023-08-31T07:56:15;6.20;;;3.70;;
71236;SDS011;58984;51.960;5.582;2023-08-31T07:58:40;8.82;;;4.55;;
71236;SDS011;58984;51.960;5.582;2023-08-31T08:01:06;4.32;;;3.53;;
71236;SDS011;58984;51.960;5.582;2023-08-31T08:03:32;6.50;;;4.07;;
71236;SDS011;58984;51.960;5.582;2023-08-31T08:05:57;8.57;;;4.35;;
71236;SDS011;58984;51.960;5.582;2023-08-31T08:08:24;6.70;;;4.22;;
71236;SDS011;58984;51.960;5.582;2023-08-31T08:10:52;7.90;;;4.72;;
71236;SDS011;58984;51.960;5.582;2023-08-31T08:13:18;6.88;;;4.78;;
71236;SDS011;58984;51.960;5.582;2023-08-31T08:15:45;8.00;;;4.15;;
71236;SDS011;58984;51.960;5.582;2023-08-31T08:18:10;9.07;;;4.30;;
71236;SDS011;58984;51.960;5.582;2023-08-31T08:20:36;6.53;;;4.05;;
71236;SDS011;58984;51.960;5.582;2023-08-31T08:23:02;5.68;;;3.50;;
71236;SDS011;58984;51.960;5.582;2023-08-31T08:25:28;4.10;;;3.00;;
71236;SDS011;58984;51.960;5.582;2023-08-31T08:27:53;5.75;;;3.28;;
71236;SDS011;58984;51.960;5.582;2023-08-31T08:30:22;7.78;;;3.50;;
71236;SDS011;58984;51.960;5.582;2023-08-31T08:32:47;3.50;;;2.92;;
71236;SDS011;58984;51.960;5.582;2023-08-31T08:35:13;6.88;;;3.40;;
71236;SDS011;58984;51.960;5.582;2023-08-31T08:37:39;4.47;;;4.03;;
71236;SDS011;58984;51.960;5.582;2023-08-31T08:40:05;6.78;;;3.70;;
71236;SDS011;58984;51.960;5.582;2023-08-31T08:42:31;6.35;;;3.60;;
71236;SDS011;58984;51.960;5.582;2023-08-31T08:45:03;5.80;;;3.40;;
71236;SDS011;58984;51.960;5.582;2023-08-31T08:47:30;6.28;;;3.30;;
71236;SDS011;58984;51.960;5.582;2023-08-31T08:49:57;6.93;;;3.65;;
71236;SDS011;58984;51.960;5.582;2023-08-31T08:52:24;5.90;;;3.50;;
71236;SDS011;58984;51.960;5.582;2023-08-31T08:54:50;4.13;;;2.88;;
71236;SDS011;58984;51.960;5.582;2023-08-31T08:57:16;6.70;;;3.30;;
71236;SDS011;58984;51.960;5.582;2023-08-31T08:59:42;3.33;;;2.53;;
71236;SDS011;58984;51.960;5.582;2023-08-31T09:02:08;5.43;;;2.85;;
71236;SDS011;58984;51.960;5.582;2023-08-31T09:04:37;4.43;;;2.72;;
71236;SDS011;58984;51.960;5.582;2023-08-31T09:07:02;5.50;;;2.42;;
71236;SDS011;58984;51.960;5.582;2023-08-31T09:09:28;3.00;;;2.78;;
71236;SDS011;58984;51.960;5.582;2023-08-31T09:11:54;3.15;;;2.50;;
71236;SDS011;58984;51.960;5.582;2023-08-31T09:14:22;4.20;;;2.30;;
71236;SDS011;58984;51.960;5.582;2023-08-31T09:16:49;4.75;;;2.55;;
71236;SDS011;58984;51.960;5.582;2023-08-31T09:19:20;5.25;;;2.22;;
71236;SDS011;58984;51.960;5.582;2023-08-31T09:21:50;3.88;;;2.42;;
71236;SDS011;58984;51.960;5.582;2023-08-31T09:24:16;3.50;;;2.30;;
71236;SDS011;58984;51.960;5.582;2023-08-31T09:26:57;3.83;;;2.50;;
71236;SDS011;58984;51.960;5.582;2023-08-31T09:29:24;3.85;;;2.33;;
71236;SDS011;58984;51.960;5.582;2023-08-31T09:31:50;4.10;;;2.58;;
71236;SDS011;58984;51.960;5.582;2023-08-31T09:34:21;4.28;;;3.00;;
71236;SDS011;58984;51.960;5.582;2023-08-31T09:37:03;2.83;;;2.30;;
71236;SDS011;58984;51.960;5.582;2023-08-31T09:39:35;3.50;;;2.35;;
71236;SDS011;58984;51.960;5.582;2023-08-31T09:42:01;3.45;;;2.22;;
71236;SDS011;58984;51.960;5.582;2023-08-31T09:44:28;3.78;;;2.65;;
71236;SDS011;58984;51.960;5.582;2023-08-31T09:46:54;3.15;;;2.40;;
71236;SDS011;58984;51.960;5.582;2023-08-31T09:49:22;4.43;;;2.20;;
71236;SDS011;58984;51.960;5.582;2023-08-31T09:51:50;3.67;;;2.30;;
71236;SDS011;58984;51.960;5.582;2023-08-31T09:54:17;4.82;;;2.42;;
71236;SDS011;58984;51.960;5.582;2023-08-31T09:56:44;4.47;;;2.10;;
71236;SDS011;58984;51.960;5.582;2023-08-31T09:59:15;5.45;;;2.88;;
71236;SDS011;58984;51.960;5.582;2023-08-31T10:01:45;3.15;;;2.20;;
71236;SDS011;58984;51.960;5.582;2023-08-31T10:04:11;4.10;;;2.30;;
71236;SDS011;58984;51.960;5.582;2023-08-31T10:06:41;5.45;;;2.08;;
71236;SDS011;58984;51.960;5.582;2023-08-31T10:09:10;4.40;;;2.83;;
71236;SDS011;58984;51.960;5.582;2023-08-31T10:11:38;3.45;;;2.28;;
71236;SDS011;58984;51.960;5.582;2023-08-31T10:14:04;3.63;;;2.25;;
71236;SDS011;58984;51.960;5.582;2023-08-31T10:16:33;4.00;;;2.20;;
71236;SDS011;58984;51.960;5.582;2023-08-31T10:18:59;2.75;;;2.10;;
71236;SDS011;58984;51.960;5.582;2023-08-31T10:21:24;2.45;;;2.13;;
71236;SDS011;58984;51.960;5.582;2023-08-31T10:23:50;4.43;;;2.20;;
71236;SDS011;58984;51.960;5.582;2023-08-31T10:26:35;2.40;;;2.15;;
71236;SDS011;58984;51.960;5.582;2023-08-31T10:29:00;3.65;;;2.17;;
71236;SDS011;58984;51.960;5.582;2023-08-31T10:31:30;2.78;;;1.90;;
71236;SDS011;58984;51.960;5.582;2023-08-31T10:33:57;2.05;;;1.80;;
71236;SDS011;58984;51.960;5.582;2023-08-31T10:36:40;5.13;;;1.70;;
71236;SDS011;58984;51.960;5.582;2023-08-31T10:41:56;2.92;;;1.80;;
71236;SDS011;58984;51.960;5.582;2023-08-31T10:44:25;1.88;;;1.67;;
71236;SDS011;58984;51.960;5.582;2023-08-31T10:46:52;1.58;;;1.48;;
71236;SDS011;58984;51.960;5.582;2023-08-31T10:49:19;1.98;;;1.58;;
71236;SDS011;58984;51.960;5.582;2023-08-31T10:51:47;3.10;;;1.67;;
71236;SDS011;58984;51.960;5.582;2023-08-31T10:54:21;2.10;;;1.40;;
71236;SDS011;58984;51.960;5.582;2023-08-31T10:59:20;3.50;;;1.58;;
71236;SDS011;58984;51.960;5.582;2023-08-31T11:01:56;1.50;;;1.40;;
71236;SDS011;58984;51.960;5.582;2023-08-31T11:04:24;1.55;;;1.45;;
71236;SDS011;58984;51.960;5.582;2023-08-31T11:09:41;1.65;;;1.50;;
71236;SDS011;58984;51.960;5.582;2023-08-31T11:12:08;2.72;;;1.40;;
71236;SDS011;58984;51.960;5.582;2023-08-31T11:14:34;1.15;;;1.02;;
71236;SDS011;58984;51.960;5.582;2023-08-31T11:16:59;1.63;;;1.33;;
71236;SDS011;58984;51.960;5.582;2023-08-31T11:19:30;2.05;;;1.30;;
71236;SDS011;58984;51.960;5.582;2023-08-31T11:21:56;1.40;;;1.30;;
71236;SDS011;58984;51.960;5.582;2023-08-31T11:24:22;1.92;;;1.27;;
71236;SDS011;58984;51.960;5.582;2023-08-31T11:26:51;1.65;;;0.98;;
71236;SDS011;58984;51.960;5.582;2023-08-31T11:29:18;1.52;;;1.30;;
71236;SDS011;58984;51.960;5.582;2023-08-31T11:31:44;3.47;;;1.20;;
71236;SDS011;58984;51.960;5.582;2023-08-31T11:34:13;1.45;;;1.10;;
71236;SDS011;58984;51.960;5.582;2023-08-31T11:36:42;2.03;;;1.20;;
71236;SDS011;58984;51.960;5.582;2023-08-31T11:39:12;1.60;;;0.98;;
71236;SDS011;58984;51.960;5.582;2023-08-31T11:41:38;1.90;;;1.00;;
71236;SDS011;58984;51.960;5.582;2023-08-31T11:44:08;1.35;;;1.15;;
71236;SDS011;58984;51.960;5.582;2023-08-31T11:46:38;1.35;;;1.25;;
71236;SDS011;58984;51.960;5.582;2023-08-31T11:49:05;1.67;;;1.20;;
71236;SDS011;58984;51.960;5.582;2023-08-31T11:51:32;1.50;;;1.30;;
71236;SDS011;58984;51.960;5.582;2023-08-31T11:54:01;1.45;;;1.00;;
71236;SDS011;58984;51.960;5.582;2023-08-31T11:56:37;3.95;;;1.20;;
71236;SDS011;58984;51.960;5.582;2023-08-31T11:59:17;1.63;;;1.17;;
71236;SDS011;58984;51.960;5.582;2023-08-31T12:01:45;1.45;;;1.05;;
71236;SDS011;58984;51.960;5.582;2023-08-31T12:04:13;1.30;;;0.90;;
71236;SDS011;58984;51.960;5.582;2023-08-31T12:06:40;2.63;;;1.17;;
71236;SDS011;58984;51.960;5.582;2023-08-31T12:09:10;1.40;;;1.05;;
71236;SDS011;58984;51.960;5.582;2023-08-31T12:11:35;1.98;;;1.10;;
71236;SDS011;58984;51.960;5.582;2023-08-31T12:14:02;1.45;;;1.35;;
71236;SDS011;58984;51.960;5.582;2023-08-31T12:16:44;3.83;;;1.17;;
71236;SDS011;58984;51.960;5.582;2023-08-31T12:19:10;1.45;;;1.05;;
71236;SDS011;58984;51.960;5.582;2023-08-31T12:21:38;1.02;;;0.93;;
71236;SDS011;58984;51.960;5.582;2023-08-31T12:24:05;1.30;;;1.05;;
71236;SDS011;58984;51.960;5.582;2023-08-31T12:26:31;2.15;;;0.90;;
71236;SDS011;58984;51.960;5.582;2023-08-31T12:28:57;1.10;;;1.00;;
71236;SDS011;58984;51.960;5.582;2023-08-31T12:31:22;2.08;;;0.82;;
71236;SDS011;58984;51.960;5.582;2023-08-31T12:33:48;1.25;;;1.10;;
71236;SDS011;58984;51.960;5.582;2023-08-31T12:36:14;1.17;;;1.02;;
71236;SDS011;58984;51.960;5.582;2023-08-31T12:38:40;0.80;;;0.80;;
71236;SDS011;58984;51.960;5.582;2023-08-31T12:41:06;1.60;;;1.10;;
71236;SDS011;58984;51.960;5.582;2023-08-31T12:43:31;0.80;;;0.80;;
71236;SDS011;58984;51.960;5.582;2023-08-31T12:45:57;1.40;;;1.10;;
71236;SDS011;58984;51.960;5.582;2023-08-31T12:48:23;1.10;;;1.00;;
71236;SDS011;58984;51.960;5.582;2023-08-31T12:50:49;0.93;;;0.85;;
71236;SDS011;58984;51.960;5.582;2023-08-31T12:53:15;1.75;;;1.05;;
71236;SDS011;58984;51.960;5.582;2023-08-31T12:55:44;1.63;;;1.00;;
71236;SDS011;58984;51.960;5.582;2023-08-31T12:58:09;2.03;;;1.10;;
71236;SDS011;58984;51.960;5.582;2023-08-31T13:00:35;1.80;;;1.20;;
71236;SDS011;58984;51.960;5.582;2023-08-31T13:03:01;1.38;;;1.00;;
71236;SDS011;58984;51.960;5.582;2023-08-31T13:05:28;1.42;;;0.90;;
71236;SDS011;58984;51.960;5.582;2023-08-31T13:07:54;1.88;;;0.95;;
71236;SDS011;58984;51.960;5.582;2023-08-31T13:10:22;1.65;;;1.00;;
71236;SDS011;58984;51.960;5.582;2023-08-31T13:12:48;1.92;;;1.13;;
71236;SDS011;58984;51.960;5.582;2023-08-31T13:15:14;0.80;;;0.80;;
71236;SDS011;58984;51.960;5.582;2023-08-31T13:17:40;0.90;;;0.90;;
71236;SDS011;58984;51.960;5.582;2023-08-31T13:20:06;1.35;;;1.23;;
71236;SDS011;58984;51.960;5.582;2023-08-31T13:22:33;5.18;;;0.90;;
71236;SDS011;58984;51.960;5.582;2023-08-31T13:24:59;1.40;;;0.85;;
71236;SDS011;58984;51.960;5.582;2023-08-31T13:27:25;3.20;;;1.10;;
71236;SDS011;58984;51.960;5.582;2023-08-31T13:29:51;1.55;;;1.10;;
71236;SDS011;58984;51.960;5.582;2023-08-31T13:32:17;2.45;;;1.30;;
71236;SDS011;58984;51.960;5.582;2023-08-31T13:34:42;2.08;;;1.13;;
71236;SDS011;58984;51.960;5.582;2023-08-31T13:37:10;1.08;;;0.80;;
71236;SDS011;58984;51.960;5.582;2023-08-31T13:39:36;1.25;;;1.00;;
71236;SDS011;58984;51.960;5.582;2023-08-31T13:42:08;1.33;;;1.00;;
71236;SDS011;58984;51.960;5.582;2023-08-31T13:44:34;1.10;;;1.00;;
71236;SDS011;58984;51.960;5.582;2023-08-31T13:47:08;1.33;;;1.10;;
71236;SDS011;58984;51.960;5.582;2023-08-31T13:49:40;1.08;;;0.93;;
71236;SDS011;58984;51.960;5.582;2023-08-31T13:52:36;2.13;;;1.00;;
71236;SDS011;58984;51.960;5.582;2023-08-31T13:55:05;1.85;;;1.00;;
71236;SDS011;58984;51.960;5.582;2023-08-31T14:15:07;1.98;;;0.95;;
71236;SDS011;58984;51.960;5.582;2023-08-31T14:17:32;1.70;;;0.88;;
71236;SDS011;58984;51.960;5.582;2023-08-31T14:19:58;1.23;;;1.13;;
71236;SDS011;58984;51.960;5.582;2023-08-31T14:22:25;1.10;;;1.02;;
71236;SDS011;58984;51.960;5.582;2023-08-31T14:24:51;1.80;;;0.90;;
71236;SDS011;58984;51.960;5.582;2023-08-31T14:27:16;2.03;;;1.10;;
71236;SDS011;58984;51.960;5.582;2023-08-31T14:29:42;3.08;;;1.38;;
71236;SDS011;58984;51.960;5.582;2023-08-31T14:32:07;2.28;;;0.93;;
71236;SDS011;58984;51.960;5.582;2023-08-31T14:34:34;1.48;;;1.02;;
71236;SDS011;58984;51.960;5.582;2023-08-31T14:36:59;0.98;;;0.93;;
71236;SDS011;58984;51.960;5.582;2023-08-31T14:39:26;1.70;;;1.00;;
71236;SDS011;58984;51.960;5.582;2023-08-31T14:41:54;5.68;;;1.30;;
71236;SDS011;58984;51.960;5.582;2023-08-31T14:44:21;2.58;;;1.70;;
71236;SDS011;58984;51.960;5.582;2023-08-31T14:46:47;4.32;;;1.50;;
71236;SDS011;58984;51.960;5.582;2023-08-31T14:49:13;3.58;;;1.90;;
71236;SDS011;58984;51.960;5.582;2023-08-31T14:51:38;2.60;;;1.80;;
71236;SDS011;58984;51.960;5.582;2023-08-31T14:54:05;3.00;;;1.75;;
71236;SDS011;58984;51.960;5.582;2023-08-31T14:56:31;2.58;;;1.90;;
71236;SDS011;58984;51.960;5.582;2023-08-31T14:58:57;4.95;;;1.90;;
71236;SDS011;58984;51.960;5.582;2023-08-31T15:01:22;3.92;;;2.00;;
71236;SDS011;58984;51.960;5.582;2023-08-31T15:03:49;5.78;;;1.98;;
71236;SDS011;58984;51.960;5.582;2023-08-31T15:06:15;4.13;;;2.00;;
71236;SDS011;58984;51.960;5.582;2023-08-31T15:08:41;3.75;;;1.50;;
71236;SDS011;58984;51.960;5.582;2023-08-31T15:11:07;4.45;;;1.70;;
71236;SDS011;58984;51.960;5.582;2023-08-31T15:13:33;3.80;;;1.90;;
71236;SDS011;58984;51.960;5.582;2023-08-31T15:15:59;4.72;;;1.70;;
71236;SDS011;58984;51.960;5.582;2023-08-31T15:18:25;2.72;;;2.08;;
71236;SDS011;58984;51.960;5.582;2023-08-31T15:20:52;3.08;;;1.83;;
71236;SDS011;58984;51.960;5.582;2023-08-31T15:23:18;3.75;;;2.08;;
71236;SDS011;58984;51.960;5.582;2023-08-31T15:25:43;4.43;;;2.00;;
71236;SDS011;58984;51.960;5.582;2023-08-31T15:28:09;5.43;;;2.38;;